Comberton, United Kingdom
Current Conditions -  °F | °C
As of 2:20 PM on Saturday 25 Oct 2014 (Local Time) from EGSC Reporting Station
Few Clouds Few Clouds  
Wind Chill: 59°   Ceiling: Unl
Heat Index: 59°   Visibility: 6mi
Dew Point: 48°   Wind: 15mph
Humidity: 67%   Direction: 210°SSW
Pressure: 30.03"   Gusts: NA
Location:  52.19°N, 0.02°E
Report Text: EGSC 251320Z 21013KT 150V240 9999 FEW020 15/09 Q1017
Loading
Personal Weather Stations






























Interactive Weather Map
Tropical Storm Tracking
New forecast layout! Learn more

10-Day Weather Forecast

Advertisements
Track Severe Weather on mobile